createdAt,value
2018-06-10T00:00:13.400Z,14.80
2018-06-10T00:02:41.852Z,16.90
2018-06-10T00:05:10.386Z,16.50
2018-06-10T00:07:39.888Z,17.27
2018-06-10T00:10:08.381Z,17.60
2018-06-10T00:12:36.839Z,18.23
2018-06-10T00:15:05.379Z,17.00
2018-06-10T00:17:34.027Z,18.43
2018-06-10T00:20:02.654Z,18.60
2018-06-10T00:22:31.071Z,17.53
2018-06-10T00:24:59.606Z,17.30
2018-06-10T00:27:28.031Z,16.03
2018-06-10T00:29:56.866Z,16.23
2018-06-10T00:32:24.989Z,19.13
2018-06-10T00:34:53.409Z,18.97
2018-06-10T00:37:22.755Z,17.37
2018-06-10T00:39:51.206Z,19.43
2018-06-10T00:42:19.956Z,20.43
2018-06-10T00:44:48.472Z,17.27
2018-06-10T00:47:17.363Z,19.60
2018-06-10T00:49:46.748Z,20.10
2018-06-10T00:52:14.876Z,20.97
2018-06-10T00:54:43.330Z,23.10
2018-06-10T00:57:11.925Z,23.80
2018-06-10T00:59:40.511Z,22.73
2018-06-10T01:02:09.724Z,23.17
2018-06-10T01:04:38.143Z,21.97
2018-06-10T01:07:06.581Z,21.10
2018-06-10T01:09:35.018Z,20.60
2018-06-10T01:12:04.248Z,20.00
2018-06-10T01:14:33.044Z,18.70
2018-06-10T01:17:02.445Z,19.13
2018-06-10T01:19:30.935Z,20.03
2018-06-10T01:21:59.541Z,19.50
2018-06-10T01:24:28.054Z,19.07
2018-06-10T01:26:56.568Z,20.00
2018-06-10T01:29:24.957Z,20.93
2018-06-10T01:31:54.272Z,19.53
2018-06-10T01:34:22.628Z,21.23
2018-06-10T01:36:51.407Z,21.50
2018-06-10T01:39:19.742Z,20.93
2018-06-10T01:41:48.872Z,18.73
2018-06-10T01:44:17.686Z,18.10
2018-06-10T01:46:46.032Z,18.70
2018-06-10T01:49:14.548Z,19.63
2018-06-10T01:51:42.966Z,20.37
2018-06-10T01:54:11.474Z,19.23
2018-06-10T01:56:40.026Z,19.73
2018-06-10T01:59:08.470Z,20.27
2018-06-10T02:01:36.945Z,20.03
2018-06-10T02:04:05.278Z,21.47
2018-06-10T02:06:33.750Z,20.77
2018-06-10T02:09:02.174Z,21.67
2018-06-10T02:11:30.755Z,20.50
2018-06-10T02:13:59.158Z,21.30
2018-06-10T02:16:28.073Z,21.53
2018-06-10T02:18:56.350Z,20.23
2018-06-10T02:21:25.531Z,20.20
2018-06-10T02:23:53.986Z,21.00
2018-06-10T02:26:22.542Z,20.27
2018-06-10T02:28:51.168Z,37.73
2018-06-10T02:31:19.867Z,21.97
2018-06-10T02:33:48.251Z,23.27
2018-06-10T02:36:16.684Z,23.13
2018-06-10T02:38:45.111Z,23.70
2018-06-10T02:41:14.392Z,23.67
2018-06-10T02:43:42.979Z,23.80
2018-06-10T02:46:11.362Z,24.90
2018-06-10T02:48:39.760Z,26.20
2018-06-10T02:51:08.277Z,25.20
2018-06-10T02:53:36.790Z,25.70
2018-06-10T02:56:05.348Z,26.40
2018-06-10T02:58:33.906Z,25.87
2018-06-10T03:01:03.296Z,29.10
2018-06-10T03:03:35.830Z,27.03
2018-06-10T03:06:04.296Z,27.93
2018-06-10T03:08:32.926Z,28.60
2018-06-10T03:11:01.567Z,29.80
2018-06-10T03:13:30.048Z,28.50
2018-06-10T03:15:58.652Z,26.13
2018-06-10T03:18:27.530Z,28.37
2018-06-10T03:20:56.699Z,27.90
2018-06-10T03:23:25.162Z,31.53
2018-06-10T03:25:53.492Z,30.80
2018-06-10T03:28:22.134Z,35.00
2018-06-10T03:30:53.633Z,35.23
2018-06-10T03:33:22.450Z,34.00
2018-06-10T03:35:50.927Z,30.67
2018-06-10T03:38:19.403Z,30.63
2018-06-10T03:40:47.841Z,33.17
2018-06-10T03:43:16.301Z,32.57
2018-06-10T03:45:45.091Z,33.30
2018-06-10T03:48:13.463Z,33.70
2018-06-10T03:50:41.924Z,33.40
2018-06-10T03:53:10.525Z,34.70
2018-06-10T03:55:39.036Z,34.57
2018-06-10T03:58:07.864Z,33.93
2018-06-10T04:00:36.416Z,35.17
2018-06-10T04:03:04.864Z,35.80
2018-06-10T04:05:33.332Z,35.30
2018-06-10T04:08:02.863Z,38.07
2018-06-10T04:10:31.589Z,37.13
2018-06-10T04:13:00.051Z,37.50
2018-06-10T04:15:28.461Z,39.53
2018-06-10T04:17:56.945Z,36.23
2018-06-10T04:20:25.504Z,33.13
2018-06-10T04:22:53.991Z,37.73
2018-06-10T04:25:22.453Z,35.13
2018-06-10T04:27:50.993Z,33.40
2018-06-10T04:30:19.662Z,32.30
2018-06-10T04:32:48.685Z,31.90
2018-06-10T04:35:17.249Z,32.03
2018-06-10T04:37:46.618Z,33.70
2018-06-10T04:40:15.050Z,31.70
2018-06-10T04:42:43.921Z,35.73
2018-06-10T04:45:12.281Z,34.60
2018-06-10T04:47:41.011Z,34.70
2018-06-10T04:50:09.477Z,35.20
2018-06-10T04:52:37.660Z,34.33
2018-06-10T04:55:06.085Z,34.20
2018-06-10T04:57:34.545Z,33.30
2018-06-10T05:00:03.255Z,32.97
2018-06-10T05:02:33.050Z,32.17
2018-06-10T05:05:01.491Z,31.73
2018-06-10T05:07:29.963Z,32.97
2018-06-10T05:09:58.457Z,34.13
2018-06-10T05:12:27.116Z,31.00
2018-06-10T05:14:55.591Z,31.93
2018-06-10T05:17:24.117Z,30.60
2018-06-10T05:19:52.673Z,30.50
2018-06-10T05:22:21.000Z,28.07
2018-06-10T05:24:49.450Z,28.33
2018-06-10T05:27:17.952Z,30.63
2018-06-10T05:29:47.546Z,32.03
2018-06-10T05:32:15.987Z,31.20
2018-06-10T05:34:44.532Z,30.57
2018-06-10T05:37:13.290Z,29.53
2018-06-10T05:39:41.772Z,30.00
2018-06-10T05:42:10.282Z,30.30
2018-06-10T05:44:38.654Z,28.80
2018-06-10T05:47:12.899Z,32.30
2018-06-10T05:49:41.280Z,31.03
2018-06-10T05:52:09.732Z,31.33
2018-06-10T05:54:38.326Z,29.53
2018-06-10T05:57:07.093Z,31.93
2018-06-10T05:59:35.534Z,32.10
2018-06-10T06:02:04.308Z,32.97
2018-06-10T06:04:32.664Z,32.17
2018-06-10T06:07:01.114Z,29.93
2018-06-10T06:09:29.693Z,30.87
2018-06-10T06:11:58.231Z,29.60
2018-06-10T06:14:26.816Z,28.93
2018-06-10T06:16:55.587Z,30.60
2018-06-10T06:19:24.019Z,28.40
2018-06-10T06:21:52.502Z,29.90
2018-06-10T06:24:20.961Z,30.80
2018-06-10T06:26:49.429Z,30.60
2018-06-10T06:29:18.314Z,28.93
2018-06-10T06:31:47.055Z,28.20
2018-06-10T06:34:15.526Z,28.50
2018-06-10T06:36:43.973Z,27.33
2018-06-10T06:39:12.930Z,28.50
2018-06-10T06:41:41.375Z,27.47
2018-06-10T06:44:10.013Z,28.30
2018-06-10T06:46:38.453Z,28.20
2018-06-10T06:49:06.881Z,26.27
2018-06-10T06:51:35.397Z,27.93
2018-06-10T06:54:03.859Z,26.60
2018-06-10T06:56:32.274Z,25.43
2018-06-10T06:59:02.082Z,27.67
2018-06-10T07:01:30.877Z,26.90
2018-06-10T07:03:59.518Z,27.10
2018-06-10T07:06:27.893Z,26.13
2018-06-10T07:08:56.375Z,28.17
2018-06-10T07:11:25.071Z,26.97
2018-06-10T07:13:53.648Z,24.80
2018-06-10T07:16:22.632Z,23.10
2018-06-10T07:18:51.069Z,26.57
2018-06-10T07:21:19.657Z,24.97
2018-06-10T07:23:48.294Z,25.90
2018-06-10T07:26:16.697Z,27.00
2018-06-10T07:28:45.219Z,25.37
2018-06-10T07:31:13.871Z,23.17
2018-06-10T07:33:42.242Z,22.50
2018-06-10T07:36:10.936Z,22.90
2018-06-10T07:38:39.464Z,24.80
2018-06-10T07:41:08.191Z,22.70
2018-06-10T07:43:36.966Z,23.83
2018-06-10T07:46:06.385Z,23.10
2018-06-10T07:48:36.379Z,21.70
2018-06-10T07:51:05.485Z,20.23
2018-06-10T07:53:34.343Z,20.23
2018-06-10T07:56:02.828Z,19.60
2018-06-10T07:58:31.355Z,19.50
2018-06-10T08:00:59.891Z,19.07
2018-06-10T08:03:28.391Z,17.93
2018-06-10T08:05:57.113Z,18.13
2018-06-10T08:08:25.645Z,17.10
2018-06-10T08:10:54.476Z,16.47
2018-06-10T08:13:23.335Z,16.33
2018-06-10T08:15:52.013Z,17.07
2018-06-10T08:18:21.012Z,14.03
2018-06-10T08:20:49.698Z,14.43
2018-06-10T08:23:18.185Z,14.43
2018-06-10T08:25:46.782Z,14.60
2018-06-10T08:28:15.415Z,13.47
2018-06-10T08:30:45.211Z,14.00
2018-06-10T08:33:13.377Z,11.67
2018-06-10T08:35:42.544Z,12.57
2018-06-10T08:38:11.943Z,11.20
2018-06-10T08:40:40.435Z,12.20
2018-06-10T08:43:09.841Z,11.80
2018-06-10T08:45:38.345Z,9.90
2018-06-10T08:48:06.930Z,11.17
2018-06-10T08:50:35.407Z,11.00
2018-06-10T08:53:04.218Z,10.10
2018-06-10T08:55:33.674Z,8.90
2018-06-10T08:58:02.764Z,9.13
2018-06-10T09:00:31.686Z,11.53
2018-06-10T09:03:00.783Z,11.30
2018-06-10T09:05:29.373Z,11.87
2018-06-10T09:07:57.878Z,11.67
2018-06-10T09:10:26.596Z,11.90
2018-06-10T09:12:55.091Z,12.23
2018-06-10T09:15:23.289Z,11.90
2018-06-10T09:17:51.877Z,11.10
2018-06-10T09:20:21.007Z,11.90
2018-06-10T09:22:49.762Z,11.10
2018-06-10T09:25:18.244Z,10.30
2018-06-10T09:27:46.671Z,10.30
2018-06-10T09:30:15.387Z,10.40
2018-06-10T09:32:43.746Z,11.40
2018-06-10T09:35:12.406Z,11.53
2018-06-10T09:37:41.583Z,11.50
2018-06-10T09:40:10.195Z,12.17
2018-06-10T09:42:38.689Z,11.50
2018-06-10T09:45:07.235Z,10.20
2018-06-10T09:47:36.013Z,10.03
2018-06-10T09:50:05.010Z,10.47
2018-06-10T09:52:33.909Z,10.03
2018-06-10T09:55:02.644Z,10.60
2018-06-10T09:57:31.915Z,9.67
2018-06-10T10:00:01.473Z,11.10
2018-06-10T10:02:29.993Z,10.23
2018-06-10T10:04:58.429Z,12.17
2018-06-10T10:07:26.987Z,13.10
2018-06-10T10:09:56.869Z,13.03
2018-06-10T10:12:25.370Z,12.73
2018-06-10T10:14:53.986Z,11.93
2018-06-10T10:17:22.776Z,11.70
2018-06-10T10:19:51.466Z,11.63
2018-06-10T10:22:20.024Z,11.50
2018-06-10T10:24:48.891Z,11.90
2018-06-10T10:27:17.629Z,12.47
2018-06-10T10:29:46.158Z,11.67
2018-06-10T10:35:04.162Z,14.03
2018-06-10T10:37:32.608Z,13.43
2018-06-10T10:42:44.681Z,11.97
2018-06-10T10:45:12.782Z,10.93
2018-06-10T10:47:41.267Z,11.57
2018-06-10T10:50:09.826Z,12.03
2018-06-10T10:52:38.892Z,11.30
2018-06-10T10:55:07.135Z,11.77
2018-06-10T10:57:36.331Z,11.70
2018-06-10T11:00:05.842Z,10.83
2018-06-10T11:02:34.467Z,12.00
2018-06-10T11:05:03.732Z,10.47
2018-06-10T11:07:32.549Z,10.97
2018-06-10T11:10:01.124Z,10.00
2018-06-10T11:12:30.069Z,9.33
2018-06-10T11:14:58.985Z,9.13
2018-06-10T11:17:27.403Z,8.00
2018-06-10T11:19:55.950Z,8.77
2018-06-10T11:22:24.592Z,7.00
2018-06-10T11:24:53.023Z,6.13
2018-06-10T11:27:21.723Z,8.20
2018-06-10T11:29:50.456Z,12.90
2018-06-10T11:32:20.045Z,12.23
2018-06-10T11:34:48.601Z,14.50
2018-06-10T11:37:19.916Z,14.13
2018-06-10T11:39:49.619Z,15.90
2018-06-10T11:42:19.795Z,14.73
2018-06-10T11:44:49.078Z,14.27
2018-06-10T11:47:20.301Z,14.53
2018-06-10T11:49:49.346Z,14.03
2018-06-10T11:52:18.895Z,13.33
2018-06-10T11:54:47.937Z,13.10
2018-06-10T11:57:16.525Z,14.20
2018-06-10T11:59:45.031Z,15.00
2018-06-10T12:02:13.666Z,13.23
2018-06-10T12:04:42.300Z,13.07
2018-06-10T12:07:10.914Z,13.40
2018-06-10T12:09:39.457Z,13.77
2018-06-10T12:12:08.046Z,13.20
2018-06-10T12:14:36.787Z,12.43
2018-06-10T12:17:19.184Z,12.27
2018-06-10T12:19:48.511Z,10.83
2018-06-10T12:22:20.004Z,11.40
2018-06-10T12:25:01.283Z,11.07
2018-06-10T12:27:29.702Z,11.77
2018-06-10T12:29:58.187Z,8.73
2018-06-10T12:32:27.969Z,8.70
2018-06-10T12:34:56.485Z,10.70
2018-06-10T12:37:25.090Z,8.50
2018-06-10T12:39:53.835Z,11.73
2018-06-10T12:42:23.324Z,11.13
2018-06-10T12:44:51.764Z,11.93
2018-06-10T12:47:20.980Z,10.47
2018-06-10T12:49:49.488Z,11.50
2018-06-10T12:52:19.914Z,11.60
2018-06-10T12:54:48.330Z,10.43
2018-06-10T12:57:21.701Z,11.73
2018-06-10T12:59:50.170Z,10.53
2018-06-10T13:02:19.626Z,9.60
2018-06-10T13:04:49.012Z,10.97
2018-06-10T13:07:17.515Z,10.70
2018-06-10T13:09:46.427Z,9.57
2018-06-10T13:12:15.719Z,10.50
2018-06-10T13:14:44.138Z,11.70
2018-06-10T13:17:13.379Z,12.43
2018-06-10T13:19:43.671Z,12.03
2018-06-10T13:22:12.708Z,11.07
2018-06-10T13:24:41.220Z,13.70
2018-06-10T13:27:13.218Z,13.27
2018-06-10T13:29:42.434Z,13.00
2018-06-10T13:32:10.982Z,12.07
2018-06-10T13:34:41.711Z,15.70
2018-06-10T13:37:10.439Z,15.13
2018-06-10T13:39:39.146Z,16.00
2018-06-10T13:42:09.453Z,18.83
2018-06-10T13:44:39.016Z,16.47
2018-06-10T13:47:08.344Z,15.10
2018-06-10T13:49:50.563Z,18.60
2018-06-10T13:52:19.963Z,17.87
2018-06-10T13:54:48.455Z,16.70
2018-06-10T13:57:17.132Z,19.53
2018-06-10T13:59:45.651Z,19.77
2018-06-10T14:02:14.333Z,20.10
2018-06-10T14:04:43.390Z,21.53
2018-06-10T14:07:12.573Z,19.53
2018-06-10T14:09:44.157Z,19.73
2018-06-10T14:12:13.851Z,21.87
2018-06-10T14:14:43.057Z,23.40
2018-06-10T14:17:11.835Z,20.27
2018-06-10T14:22:43.025Z,18.57
2018-06-10T14:25:17.591Z,18.00
2018-06-10T14:27:49.644Z,17.70
2018-06-10T14:30:26.162Z,17.23
2018-06-10T14:33:05.135Z,16.47
2018-06-10T14:35:35.467Z,18.17
2018-06-10T14:38:03.899Z,15.77
2018-06-10T14:40:40.665Z,17.17
2018-06-10T14:43:10.948Z,17.50
2018-06-10T14:45:41.395Z,18.10
2018-06-10T14:48:10.141Z,17.10
2018-06-10T14:50:38.620Z,17.73
2018-06-10T14:53:08.106Z,17.63
2018-06-10T14:55:36.541Z,16.47
2018-06-10T14:58:05.101Z,17.93
2018-06-10T15:00:33.990Z,17.80
2018-06-10T15:03:03.327Z,17.53
2018-06-10T15:05:32.599Z,17.40
2018-06-10T15:08:01.931Z,17.03
2018-06-10T15:10:40.313Z,16.93
2018-06-10T15:13:15.157Z,16.37
2018-06-10T15:15:45.019Z,17.53
2018-06-10T15:18:18.543Z,20.20
2018-06-10T15:20:47.055Z,16.50
2018-06-10T15:23:16.773Z,18.13
2018-06-10T15:25:52.794Z,17.60
2018-06-10T15:28:21.629Z,16.20
2018-06-10T15:30:50.211Z,16.80
2018-06-10T15:33:18.713Z,16.93
2018-06-10T15:35:57.514Z,18.40
2018-06-10T15:38:30.638Z,17.33
2018-06-10T15:40:59.242Z,17.03
2018-06-10T15:43:27.672Z,15.43
2018-06-10T15:46:22.331Z,17.40
2018-06-10T15:50:48.926Z,16.83
2018-06-10T15:59:30.914Z,15.50
2018-06-10T16:01:59.580Z,18.13
2018-06-10T16:04:28.032Z,15.83
2018-06-10T16:06:56.365Z,17.53
2018-06-10T16:09:29.091Z,17.10
2018-06-10T16:11:57.893Z,15.40
2018-06-10T16:14:26.349Z,16.40
2018-06-10T16:16:54.854Z,16.30
2018-06-10T16:19:23.820Z,15.07
2018-06-10T16:21:57.615Z,14.90
2018-06-10T16:27:24.145Z,15.00
2018-06-10T16:29:52.602Z,14.40
2018-06-10T16:32:38.219Z,14.00
2018-06-10T16:35:06.653Z,14.80
2018-06-10T16:37:35.673Z,15.00
2018-06-10T16:40:05.212Z,15.53
2018-06-10T16:42:35.435Z,16.80
2018-06-10T16:45:03.988Z,15.47
2018-06-10T16:47:32.560Z,16.47
2018-06-10T16:50:03.288Z,16.17
2018-06-10T16:52:31.686Z,16.13
2018-06-10T16:55:08.778Z,15.77
2018-06-10T16:57:37.348Z,16.63
2018-06-10T17:00:06.648Z,15.80
2018-06-10T17:02:35.680Z,15.83
2018-06-10T17:05:08.448Z,17.47
2018-06-10T17:07:37.197Z,16.60
2018-06-10T17:10:12.467Z,16.57
2018-06-10T17:12:41.365Z,16.37
2018-06-10T17:15:09.957Z,15.47
2018-06-10T17:17:38.748Z,15.50
2018-06-10T17:20:07.296Z,14.80
2018-06-10T17:22:35.834Z,16.43
2018-06-10T17:25:05.023Z,16.63
2018-06-10T17:27:33.931Z,15.70
2018-06-10T17:30:05.602Z,15.37
2018-06-10T17:32:34.082Z,16.43
2018-06-10T17:37:43.916Z,14.53
2018-06-10T17:40:12.369Z,15.03
2018-06-10T17:42:40.778Z,13.87
2018-06-10T17:45:09.292Z,13.83
2018-06-10T17:47:38.208Z,14.23
2018-06-10T17:50:06.804Z,25.33
2018-06-10T17:52:35.252Z,21.23
2018-06-10T17:55:04.646Z,19.77
2018-06-10T17:57:33.344Z,27.00
2018-06-10T18:00:02.011Z,18.43
2018-06-10T18:02:30.486Z,15.77
2018-06-10T18:05:03.159Z,16.20
2018-06-10T18:07:31.645Z,17.40
2018-06-10T18:10:09.408Z,15.63
2018-06-10T18:12:40.785Z,14.93
2018-06-10T18:15:10.232Z,15.27
2018-06-10T18:17:40.126Z,16.80
2018-06-10T18:20:08.849Z,14.20
2018-06-10T18:22:38.155Z,13.63
2018-06-10T18:25:06.730Z,14.23
2018-06-10T18:27:35.438Z,12.53
2018-06-10T18:30:05.886Z,13.77
2018-06-10T18:32:34.528Z,14.03
2018-06-10T18:35:03.790Z,13.53
2018-06-10T18:37:32.315Z,12.80
2018-06-10T18:40:00.817Z,12.93
2018-06-10T18:42:29.260Z,13.80
2018-06-10T18:44:57.720Z,15.00
2018-06-10T18:47:26.532Z,14.40
2018-06-10T18:49:56.301Z,13.23
2018-06-10T18:52:25.010Z,13.27
2018-06-10T18:54:53.673Z,13.67
2018-06-10T18:57:23.070Z,13.30
2018-06-10T18:59:51.355Z,14.63
2018-06-10T19:02:21.817Z,14.33
2018-06-10T19:04:55.800Z,14.90
2018-06-10T19:07:25.312Z,13.60
2018-06-10T19:09:56.178Z,14.63
2018-06-10T19:12:30.628Z,14.90
2018-06-10T19:15:07.149Z,15.93
2018-06-10T19:17:41.717Z,14.17
2018-06-10T19:20:10.657Z,17.47
2018-06-10T19:22:55.045Z,19.50
2018-06-10T19:25:29.561Z,15.37
2018-06-10T19:28:01.218Z,15.53
2018-06-10T19:30:35.532Z,17.10
2018-06-10T19:33:07.128Z,16.50
2018-06-10T19:35:35.973Z,16.87
2018-06-10T19:38:09.628Z,16.90
2018-06-10T19:40:38.574Z,18.00
2018-06-10T19:43:07.543Z,18.30
2018-06-10T19:45:36.321Z,17.93
2018-06-10T19:48:05.556Z,18.50
2018-06-10T19:50:34.563Z,18.37
2018-06-10T19:53:09.537Z,18.23
2018-06-10T19:55:38.106Z,18.73
2018-06-10T19:58:06.561Z,20.00
2018-06-10T20:00:35.019Z,19.20
2018-06-10T20:03:04.218Z,19.80
2018-06-10T20:05:33.384Z,20.83
2018-06-10T20:08:01.962Z,19.50
2018-06-10T20:10:30.480Z,20.10
2018-06-10T20:12:59.028Z,21.80
2018-06-10T20:15:27.870Z,21.27
2018-06-10T20:17:57.439Z,21.50
2018-06-10T20:20:25.972Z,22.57
2018-06-10T20:22:54.705Z,22.07
2018-06-10T20:25:23.872Z,24.07
2018-06-10T20:27:52.334Z,23.93
2018-06-10T20:30:23.133Z,25.07
2018-06-10T20:32:52.196Z,23.90
2018-06-10T20:35:23.036Z,24.07
2018-06-10T20:37:51.450Z,24.87
2018-06-10T20:40:20.213Z,25.70
2018-06-10T20:42:48.899Z,25.27
2018-06-10T20:45:19.293Z,26.33
2018-06-10T20:47:47.976Z,23.80
2018-06-10T20:50:16.469Z,24.93
2018-06-10T20:52:45.367Z,26.73
2018-06-10T20:55:14.065Z,27.43
2018-06-10T20:57:46.430Z,25.83
2018-06-10T21:00:15.724Z,24.37
2018-06-10T21:02:44.172Z,25.97
2018-06-10T21:05:13.408Z,27.27
2018-06-10T21:07:42.251Z,26.73
2018-06-10T21:10:12.428Z,28.70
2018-06-10T21:12:42.861Z,27.23
2018-06-10T21:15:11.324Z,28.03
2018-06-10T21:17:39.935Z,29.53
2018-06-10T21:20:08.498Z,27.77
2018-06-10T21:22:36.966Z,26.53
2018-06-10T21:25:06.197Z,28.20
2018-06-10T21:27:34.619Z,29.70
2018-06-10T21:30:03.560Z,27.67
2018-06-10T21:32:32.669Z,29.50
2018-06-10T21:35:01.129Z,28.53
2018-06-10T21:37:29.620Z,29.67
2018-06-10T21:39:58.113Z,29.33
2018-06-10T21:42:26.830Z,29.30
2018-06-10T21:44:55.338Z,29.90
2018-06-10T21:47:26.429Z,30.63
2018-06-10T21:49:54.860Z,31.10
2018-06-10T21:52:23.344Z,31.47
2018-06-10T21:54:51.753Z,30.43
2018-06-10T21:57:20.720Z,29.57
2018-06-10T21:59:49.100Z,28.07
2018-06-10T22:02:17.658Z,30.80
2018-06-10T22:04:46.148Z,30.43
2018-06-10T22:07:14.683Z,31.10
2018-06-10T22:09:43.516Z,31.73
2018-06-10T22:12:12.096Z,30.80
2018-06-10T22:14:40.680Z,30.87
2018-06-10T22:17:09.897Z,30.87
2018-06-10T22:19:38.763Z,32.30
2018-06-10T22:22:07.482Z,31.13
2018-06-10T22:24:35.980Z,27.87
2018-06-10T22:27:04.408Z,33.40
2018-06-10T22:29:34.070Z,31.73
2018-06-10T22:32:03.023Z,31.20
2018-06-10T22:34:31.483Z,30.50
2018-06-10T22:37:00.119Z,31.60
2018-06-10T22:39:28.815Z,29.97
2018-06-10T22:41:57.936Z,30.57
2018-06-10T22:44:26.447Z,32.10
2018-06-10T22:46:54.989Z,31.97
2018-06-10T22:49:23.369Z,32.40
2018-06-10T22:51:51.831Z,32.77
2018-06-10T22:54:29.781Z,31.50
2018-06-10T22:56:58.333Z,31.77
2018-06-10T22:59:26.896Z,32.57
2018-06-10T23:01:55.466Z,31.50
2018-06-10T23:04:23.780Z,32.23
2018-06-10T23:06:52.332Z,31.67
2018-06-10T23:09:21.158Z,32.90
2018-06-10T23:11:49.705Z,32.90
2018-06-10T23:14:18.077Z,31.57
2018-06-10T23:16:46.652Z,30.33
2018-06-10T23:19:15.168Z,33.57
2018-06-10T23:21:43.637Z,31.80
2018-06-10T23:24:12.136Z,31.93
2018-06-10T23:26:42.313Z,33.77
2018-06-10T23:29:10.842Z,31.07
2018-06-10T23:31:39.424Z,32.73
2018-06-10T23:34:07.912Z,35.07
2018-06-10T23:36:36.901Z,32.50
2018-06-10T23:39:07.478Z,35.00
2018-06-10T23:41:36.193Z,31.43
2018-06-10T23:44:04.691Z,32.50
2018-06-10T23:46:33.683Z,32.63
2018-06-10T23:49:02.468Z,33.40
2018-06-10T23:51:30.802Z,35.00
2018-06-10T23:54:00.413Z,30.83
2018-06-10T23:56:28.838Z,33.33
2018-06-10T23:58:57.890Z,33.67
